Time;durP1;ratioP1;P1;durP2;ratioP2;P2;SDS_P1;SDS_P2;PMS_P1;PMS_P2;Temp;Humidity;BMP_temperature;BMP_pressure;BME280_temperature;BME280_humidity;BME280_pressure;Samples;Min_cycle;Max_cycle;Signal;HPM_P1;HPM_P2
2023/09/20 00:00:27;;;;;;;;;;;;;;;16.93;100.00;100825.72;5033429;28;19947;-73
2023/09/20 00:02:53;;;;;;;;;;;;;;;16.97;100.00;100835.28;5024257;28;20358;-73
2023/09/20 00:05:21;;;;;;;;;;;;;;;16.91;100.00;100833.16;5042143;28;19931;-74
2023/09/20 00:07:46;;;;;;;;;;;;;;;16.84;100.00;100827.56;5040537;28;19936;-75
2023/09/20 00:10:15;;;;;;;;;;;;;;;16.84;100.00;100829.41;5038642;28;19921;-74
2023/09/20 00:12:40;;;;;;;;;;;;;;;16.77;100.00;100831.91;5035133;28;19948;-75
2023/09/20 00:15:07;;;;;;;;;;;;;;;16.75;100.00;100833.94;5037597;28;19932;-73
2023/09/20 00:17:34;;;;;;;;;;;;;;;16.74;100.00;100835.81;5025544;28;20283;-71
2023/09/20 00:19:59;;;;;;;;;;;;;;;16.70;100.00;100833.56;5039418;28;19959;-75
2023/09/20 00:22:24;;;;;;;;;;;;;;;16.81;100.00;100824.31;5023856;28;20378;-73
2023/09/20 00:24:51;;;;;;;;;;;;;;;16.83;100.00;100831.28;5026762;28;19921;-73
2023/09/20 00:27:16;;;;;;;;;;;;;;;16.75;100.00;100834.78;5026731;28;19925;-76
2023/09/20 00:29:41;;;;;;;;;;;;;;;16.77;100.00;100819.22;5026875;28;19932;-72
2023/09/20 00:32:07;;;;;;;;;;;;;;;16.68;100.00;100822.88;5024711;28;19956;-75
2023/09/20 00:34:32;;;;;;;;;;;;;;;16.65;100.00;100823.19;5026737;28;20012;-75
2023/09/20 00:36:57;;;;;;;;;;;;;;;16.64;100.00;100826.91;5029560;28;19920;-74
2023/09/20 00:39:23;;;;;;;;;;;;;;;16.64;100.00;100819.66;5033359;28;19966;-72
2023/09/20 00:41:49;;;;;;;;;;;;;;;16.67;100.00;100826.59;5038890;28;21068;-73
2023/09/20 00:44:14;;;;;;;;;;;;;;;16.67;100.00;100823.88;5029641;28;19925;-73
2023/09/20 00:46:40;;;;;;;;;;;;;;;16.57;100.00;100817.72;5041637;28;20013;-73
2023/09/20 00:49:06;;;;;;;;;;;;;;;16.52;100.00;100822.78;5042537;28;19928;-72
2023/09/20 00:51:31;;;;;;;;;;;;;;;16.59;100.00;100816.56;5037847;28;20476;-73
2023/09/20 00:53:58;;;;;;;;;;;;;;;16.54;100.00;100813.47;5032410;28;19921;-74
2023/09/20 00:56:23;;;;;;;;;;;;;;;16.33;100.00;100814.69;5033688;28;19960;-72
2023/09/20 00:58:50;;;;;;;;;;;;;;;16.20;100.00;100816.94;5028083;28;20020;-72
2023/09/20 01:01:16;;;;;;;;;;;;;;;16.26;100.00;100818.19;5044435;28;20397;-77
2023/09/20 01:03:41;;;;;;;;;;;;;;;16.27;100.00;100826.16;5029886;28;19921;-74
2023/09/20 01:06:08;;;;;;;;;;;;;;;16.19;100.00;100817.97;5013740;28;19923;-75
2023/09/20 01:08:33;;;;;;;;;;;;;;;16.19;100.00;100818.81;5028387;28;20421;-71
2023/09/20 01:10:59;;;;;;;;;;;;;;;16.06;100.00;100823.78;5025217;28;20019;-75
2023/09/20 01:13:24;;;;;;;;;;;;;;;16.00;100.00;100817.13;5026047;28;19920;-71
2023/09/20 01:15:49;;;;;;;;;;;;;;;15.98;100.00;100821.84;5034436;28;20305;-73
2023/09/20 01:18:15;;;;;;;;;;;;;;;16.04;100.00;100823.06;5029237;28;20406;-73
2023/09/20 01:20:40;;;;;;;;;;;;;;;16.01;100.00;100816.13;5024527;28;20478;-73
2023/09/20 01:23:06;;;;;;;;;;;;;;;15.88;100.00;100815.69;5030761;28;19987;-73
2023/09/20 01:25:39;;;;;;;;;;;;;;;15.86;100.00;100817.69;5030436;28;19921;-73
2023/09/20 01:28:06;;;;;;;;;;;;;;;15.78;100.00;100812.16;5039789;28;19925;-75
2023/09/20 01:30:32;;;;;;;;;;;;;;;15.68;100.00;100809.53;5026882;28;19994;-74
2023/09/20 01:32:58;;;;;;;;;;;;;;;15.62;100.00;100811.00;5039232;28;19996;-74
2023/09/20 01:35:25;;;;;;;;;;;;;;;15.52;100.00;100807.50;5034303;28;20449;-71
2023/09/20 01:37:50;;;;;;;;;;;;;;;15.43;100.00;100804.69;5027471;28;20360;-73
2023/09/20 01:40:16;;;;;;;;;;;;;;;15.44;100.00;100805.56;5025982;28;19921;-73
2023/09/20 01:42:42;;;;;;;;;;;;;;;15.38;100.00;100803.47;5032205;28;19955;-75
2023/09/20 01:45:14;;;;;;;;;;;;;;;15.36;100.00;100794.66;5027238;28;19921;-72
2023/09/20 01:47:39;;;;;;;;;;;;;;;15.45;100.00;100788.34;5028588;28;19932;-73
2023/09/20 01:50:05;;;;;;;;;;;;;;;15.62;100.00;100794.78;5046646;28;19920;-75
2023/09/20 01:52:30;;;;;;;;;;;;;;;15.45;100.00;100799.16;5036530;28;19963;-75
2023/09/20 01:54:57;;;;;;;;;;;;;;;15.44;100.00;100802.88;5037863;28;19940;-76
2023/09/20 01:57:23;;;;;;;;;;;;;;;15.40;100.00;100788.78;5034515;28;20390;-76
2023/09/20 01:59:48;;;;;;;;;;;;;;;15.44;100.00;100789.34;5045152;28;19924;-72
2023/09/20 02:02:13;;;;;;;;;;;;;;;15.44;100.00;100776.66;5033851;28;19925;-74
2023/09/20 02:04:39;;;;;;;;;;;;;;;15.30;100.00;100785.28;5028311;28;19920;-74
2023/09/20 02:07:06;;;;;;;;;;;;;;;15.34;100.00;100781.28;5034637;28;19928;-74
2023/09/20 02:09:31;;;;;;;;;;;;;;;15.42;100.00;100769.69;5038922;28;20611;-74
2023/09/20 02:11:56;;;;;;;;;;;;;;;15.32;100.00;100768.91;5047812;28;19920;-76
2023/09/20 02:14:22;;;;;;;;;;;;;;;15.28;100.00;100771.91;5034705;28;20263;-73
2023/09/20 02:16:47;;;;;;;;;;;;;;;15.26;100.00;100765.78;5036041;28;20003;-75
2023/09/20 02:19:13;;;;;;;;;;;;;;;15.20;100.00;100762.84;5035988;28;19932;-77
2023/09/20 02:21:38;;;;;;;;;;;;;;;15.21;100.00;100772.66;5034990;28;20019;-74
2023/09/20 02:24:05;;;;;;;;;;;;;;;15.28;100.00;100760.25;5036166;28;20015;-73
2023/09/20 02:26:30;;;;;;;;;;;;;;;15.28;100.00;100761.09;5034433;28;19925;-75
2023/09/20 02:28:56;;;;;;;;;;;;;;;15.20;100.00;100763.72;5033125;28;21063;-72
2023/09/20 02:31:21;;;;;;;;;;;;;;;15.26;100.00;100759.56;5033192;28;19979;-73
2023/09/20 02:33:47;;;;;;;;;;;;;;;15.18;100.00;100754.91;5035899;28;20386;-72
2023/09/20 02:36:12;;;;;;;;;;;;;;;15.32;100.00;100760.78;5038481;28;19968;-74
2023/09/20 02:38:37;;;;;;;;;;;;;;;15.27;100.00;100750.44;5038664;28;20409;-73
2023/09/20 02:41:03;;;;;;;;;;;;;;;15.31;100.00;100749.13;5034641;28;20524;-73
2023/09/20 02:43:29;;;;;;;;;;;;;;;15.35;100.00;100744.25;5050448;28;20466;-73
2023/09/20 02:45:54;;;;;;;;;;;;;;;15.41;100.00;100739.06;5039611;28;19928;-76
2023/09/20 02:48:20;;;;;;;;;;;;;;;15.49;100.00;100735.63;5035245;28;19917;-76
2023/09/20 02:50:45;;;;;;;;;;;;;;;15.49;100.00;100737.47;5039070;28;19939;-74
2023/09/20 02:53:11;;;;;;;;;;;;;;;15.49;100.00;100743.75;5035749;28;19942;-74
2023/09/20 02:55:38;;;;;;;;;;;;;;;15.56;100.00;100728.56;5036196;28;19926;-74
2023/09/20 02:58:04;;;;;;;;;;;;;;;15.63;100.00;100731.50;5037337;28;19927;-74
2023/09/20 03:00:31;;;;;;;;;;;;;;;15.64;100.00;100733.19;5035436;28;19925;-74
2023/09/20 03:02:57;;;;;;;;;;;;;;;15.68;100.00;100734.59;5034751;28;19975;-74
2023/09/20 03:05:26;;;;;;;;;;;;;;;15.70;100.00;100720.91;5047877;28;20437;-72
2023/09/20 03:07:53;;;;;;;;;;;;;;;15.68;100.00;100720.22;5029626;28;19916;-72
2023/09/20 03:10:22;;;;;;;;;;;;;;;15.76;100.00;100722.97;5037885;28;20118;-76
2023/09/20 03:12:48;;;;;;;;;;;;;;;15.75;100.00;100722.13;5030415;28;20407;-74
2023/09/20 03:15:17;;;;;;;;;;;;;;;15.81;100.00;100711.69;5043232;28;19992;-73
2023/09/20 03:17:43;;;;;;;;;;;;;;;15.84;100.00;100714.94;5038785;28;19983;-72
2023/09/20 03:20:26;;;;;;;;;;;;;;;15.78;100.00;100722.84;5035249;28;20425;-73
2023/09/20 03:22:52;;;;;;;;;;;;;;;15.80;100.00;100713.53;5032914;28;20264;-74
2023/09/20 03:25:19;;;;;;;;;;;;;;;15.73;100.00;100712.50;5031855;28;19927;-71
2023/09/20 03:27:44;;;;;;;;;;;;;;;15.69;100.00;100711.94;5030715;28;19921;-74
2023/09/20 03:30:22;;;;;;;;;;;;;;;15.65;100.00;100701.59;5036894;28;20527;-75
2023/09/20 03:32:47;;;;;;;;;;;;;;;15.64;100.00;100699.88;5038328;28;19942;-72
2023/09/20 03:35:13;;;;;;;;;;;;;;;15.62;100.00;100710.00;5038167;28;19925;-72
2023/09/20 03:37:40;;;;;;;;;;;;;;;15.49;100.00;100715.81;5037402;28;19916;-75
2023/09/20 03:40:06;;;;;;;;;;;;;;;15.64;100.00;100708.84;5031736;28;20043;-72
2023/09/20 03:42:32;;;;;;;;;;;;;;;15.70;100.00;100723.63;5033157;28;19924;-75
2023/09/20 03:44:58;;;;;;;;;;;;;;;15.67;100.00;100711.22;5035169;28;19920;-72
2023/09/20 03:47:23;;;;;;;;;;;;;;;15.51;100.00;100716.50;5034748;28;19917;-74
2023/09/20 03:49:52;;;;;;;;;;;;;;;15.73;100.00;100729.56;5038342;28;19925;-74
2023/09/20 03:52:18;;;;;;;;;;;;;;;15.67;100.00;100716.66;5036872;28;19912;-74
2023/09/20 03:54:47;;;;;;;;;;;;;;;15.64;100.00;100722.38;5046769;28;19972;-74
2023/09/20 03:57:15;;;;;;;;;;;;;;;15.63;100.00;100722.53;5037861;28;19924;-73
2023/09/20 03:59:41;;;;;;;;;;;;;;;15.57;100.00;100724.03;5031640;28;19924;-72
2023/09/20 04:02:10;;;;;;;;;;;;;;;15.52;100.00;100727.16;5044982;28;19968;-76
2023/09/20 04:04:36;;;;;;;;;;;;;;;15.48;100.00;100719.53;5034393;28;20197;-71
2023/09/20 04:07:01;;;;;;;;;;;;;;;15.49;100.00;100715.81;5032317;28;20008;-72
2023/09/20 04:09:26;;;;;;;;;;;;;;;15.38;100.00;100727.72;5034598;28;19935;-74
2023/09/20 04:11:52;;;;;;;;;;;;;;;15.26;100.00;100719.81;5030894;28;19928;-73
2023/09/20 04:14:17;;;;;;;;;;;;;;;15.26;100.00;100722.53;5022563;28;19964;-72
2023/09/20 04:16:42;;;;;;;;;;;;;;;15.28;100.00;100715.09;5039635;28;19928;-74
2023/09/20 04:19:08;;;;;;;;;;;;;;;15.11;100.00;100708.69;5022833;28;19931;-72
2023/09/20 04:21:33;;;;;;;;;;;;;;;14.99;100.00;100718.84;5027989;28;20318;-74
2023/09/20 04:24:03;;;;;;;;;;;;;;;14.99;100.00;100716.16;5029430;28;20608;-72
2023/09/20 04:26:28;;;;;;;;;;;;;;;14.89;100.00;100717.22;5019379;28;20321;-74
2023/09/20 04:28:55;;;;;;;;;;;;;;;14.89;100.00;100718.06;5026425;28;19920;-74
2023/09/20 04:31:20;;;;;;;;;;;;;;;14.90;100.00;100722.47;5026446;28;20021;-77
2023/09/20 04:33:46;;;;;;;;;;;;;;;14.92;100.00;100715.06;5040105;28;19935;-76
2023/09/20 04:36:12;;;;;;;;;;;;;;;14.91;100.00;100702.56;5043648;28;19920;-75
2023/09/20 04:38:37;;;;;;;;;;;;;;;15.00;100.00;100708.91;5029817;28;19925;-71
2023/09/20 04:41:02;;;;;;;;;;;;;;;14.88;100.00;100702.00;5041007;28;20217;-71
2023/09/20 04:43:28;;;;;;;;;;;;;;;14.93;100.00;100697.00;5041163;28;20268;-73
2023/09/20 04:45:55;;;;;;;;;;;;;;;14.86;100.00;100699.47;5031003;28;20423;-73
2023/09/20 04:48:20;;;;;;;;;;;;;;;14.82;100.00;100701.63;5031242;28;19920;-75
2023/09/20 04:50:48;;;;;;;;;;;;;;;14.85;100.00;100704.00;5044150;28;19943;-73
2023/09/20 04:53:14;;;;;;;;;;;;;;;14.83;100.00;100711.41;5029410;28;19931;-76
2023/09/20 04:55:39;;;;;;;;;;;;;;;14.76;100.00;100704.91;5037466;28;20068;-73
2023/09/20 04:58:06;;;;;;;;;;;;;;;14.77;100.00;100714.72;5034889;28;19927;-72
2023/09/20 05:00:37;;;;;;;;;;;;;;;14.76;100.00;100707.63;5043680;28;19925;-75
2023/09/20 05:03:03;;;;;;;;;;;;;;;14.73;100.00;100696.25;5029243;28;19925;-74
2023/09/20 05:05:28;;;;;;;;;;;;;;;14.72;100.00;100699.94;5030080;28;19934;-74
2023/09/20 05:07:53;;;;;;;;;;;;;;;14.66;100.00;100701.38;5033218;28;19920;-72
2023/09/20 05:10:19;;;;;;;;;;;;;;;14.59;100.00;100697.56;5049804;28;19960;-74
2023/09/20 05:12:44;;;;;;;;;;;;;;;14.64;100.00;100708.78;5039728;28;19927;-71
2023/09/20 05:15:13;;;;;;;;;;;;;;;14.65;100.00;100705.94;5045037;28;19967;-72
2023/09/20 05:17:38;;;;;;;;;;;;;;;14.61;100.00;100712.63;5047301;28;19920;-72
2023/09/20 05:20:05;;;;;;;;;;;;;;;14.61;100.00;100709.94;5041975;28;20492;-74
2023/09/20 05:22:30;;;;;;;;;;;;;;;14.67;100.00;100708.47;5037439;28;20015;-74
2023/09/20 05:24:57;;;;;;;;;;;;;;;14.70;100.00;100708.22;5022777;28;20043;-74
2023/09/20 05:27:23;;;;;;;;;;;;;;;14.72;100.00;100705.34;5037685;28;19928;-73
2023/09/20 05:29:50;;;;;;;;;;;;;;;14.63;100.00;100705.25;5049629;28;21332;-73
2023/09/20 05:32:15;;;;;;;;;;;;;;;14.75;100.00;100695.09;5048611;28;20561;-74
2023/09/20 05:34:42;;;;;;;;;;;;;;;14.74;100.00;100692.53;5040209;28;19916;-75
2023/09/20 05:37:07;;;;;;;;;;;;;;;14.72;100.00;100695.41;5025648;28;19975;-72
2023/09/20 05:39:34;;;;;;;;;;;;;;;14.80;100.00;100691.94;5036424;28;19925;-73
2023/09/20 05:42:00;;;;;;;;;;;;;;;14.88;100.00;100693.88;5031990;28;19936;-73
2023/09/20 05:44:25;;;;;;;;;;;;;;;14.84;100.00;100694.19;5042379;28;19925;-74
2023/09/20 05:46:51;;;;;;;;;;;;;;;14.82;100.00;100692.66;5037802;28;19948;-73
2023/09/20 05:49:17;;;;;;;;;;;;;;;14.85;100.00;100687.78;5044180;28;20404;-73
2023/09/20 05:51:44;;;;;;;;;;;;;;;14.97;100.00;100682.16;5030189;28;19921;-73
2023/09/20 05:54:09;;;;;;;;;;;;;;;14.97;100.00;100677.59;5030072;28;20007;-74
2023/09/20 05:56:35;;;;;;;;;;;;;;;15.09;100.00;100683.66;5034173;28;20047;-73
2023/09/20 05:59:01;;;;;;;;;;;;;;;15.02;100.00;100682.56;5040798;28;19928;-73
2023/09/20 06:01:30;;;;;;;;;;;;;;;15.10;100.00;100679.94;5033947;28;19921;-74
2023/09/20 06:03:56;;;;;;;;;;;;;;;15.14;100.00;100685.91;5038621;28;19967;-77
2023/09/20 06:06:21;;;;;;;;;;;;;;;15.23;100.00;100684.13;5036223;28;19990;-77
2023/09/20 06:08:47;;;;;;;;;;;;;;;15.28;100.00;100685.34;5044422;28;19921;-74
2023/09/20 06:11:12;;;;;;;;;;;;;;;15.27;100.00;100686.34;5041587;28;20035;-72
2023/09/20 06:13:38;;;;;;;;;;;;;;;15.27;100.00;100686.34;5039859;28;20008;-75
2023/09/20 06:16:05;;;;;;;;;;;;;;;15.22;100.00;100688.69;5036293;28;21320;-74
2023/09/20 06:18:30;;;;;;;;;;;;;;;15.35;100.00;100679.34;5024816;28;20417;-77
2023/09/20 06:20:58;;;;;;;;;;;;;;;15.48;100.00;100673.53;5033095;28;19920;-74
2023/09/20 06:23:27;;;;;;;;;;;;;;;15.48;100.00;100674.41;5044711;28;20028;-73
2023/09/20 06:25:53;;;;;;;;;;;;;;;15.58;100.00;100672.44;5025253;28;19920;-73
2023/09/20 06:28:19;;;;;;;;;;;;;;;15.63;100.00;100674.66;5047154;28;20365;-74
2023/09/20 06:30:44;;;;;;;;;;;;;;;15.63;100.00;100674.66;5016122;28;20302;-73
2023/09/20 06:33:11;;;;;;;;;;;;;;;15.68;100.00;100674.22;5032536;28;19959;-76
2023/09/20 06:35:45;;;;;;;;;;;;;;;15.68;100.00;100660.69;5029478;28;19920;-73
2023/09/20 06:38:10;;;;;;;;;;;;;;;15.77;100.00;100672.41;5033902;28;20367;-72
2023/09/20 06:40:39;;;;;;;;;;;;;;;15.83;100.00;100678.03;5029888;28;20030;-73
2023/09/20 06:43:07;;;;;;;;;;;;;;;15.78;100.00;100666.00;5030530;28;20024;-75
2023/09/20 06:45:32;;;;;;;;;;;;;;;15.87;100.00;100670.50;5030178;28;19924;-77
2023/09/20 06:47:57;;;;;;;;;;;;;;;15.99;100.00;100673.78;5036262;28;19964;-75
2023/09/20 06:50:23;;;;;;;;;;;;;;;16.06;100.00;100668.59;5033116;28;20032;-76
2023/09/20 06:52:48;;;;;;;;;;;;;;;16.18;100.00;100678.13;5043481;28;19925;-74
2023/09/20 06:55:16;;;;;;;;;;;;;;;16.08;100.00;100670.09;5035382;28;19917;-79
2023/09/20 06:57:41;;;;;;;;;;;;;;;16.25;100.00;100673.75;5042961;28;20436;-73
2023/09/20 07:03:02;;;;;;;;;;;;;;;16.34;100.00;100670.09;5033510;28;20034;-74
2023/09/20 07:05:28;;;;;;;;;;;;;;;16.37;100.00;100663.50;5032669;28;19925;-76
2023/09/20 07:07:54;;;;;;;;;;;;;;;16.47;100.00;100661.53;5028591;28;19978;-77
2023/09/20 07:10:19;;;;;;;;;;;;;;;16.48;100.00;100657.81;5041559;28;20016;-73
2023/09/20 07:12:44;;;;;;;;;;;;;;;16.50;100.00;100668.47;5033138;28;19921;-74
2023/09/20 07:15:12;;;;;;;;;;;;;;;16.60;100.00;100669.19;5035591;28;20383;-76
2023/09/20 07:17:40;;;;;;;;;;;;;;;16.59;100.00;100669.34;5027709;28;19921;-76
2023/09/20 07:20:17;;;;;;;;;;;;;;;16.58;100.00;100665.81;5029418;28;20202;-72
2023/09/20 07:22:43;;;;;;;;;;;;;;;16.66;100.00;100673.09;5028619;28;19921;-73
2023/09/20 07:25:19;;;;;;;;;;;;;;;16.76;100.00;100665.69;5027621;28;20292;-72
2023/09/20 07:27:45;;;;;;;;;;;;;;;16.70;100.00;100660.06;5029890;28;19970;-75
2023/09/20 07:30:17;;;;;;;;;;;;;;;16.71;100.00;100659.91;5032821;28;19924;-72
2023/09/20 07:32:43;;;;;;;;;;;;;;;16.86;100.00;100657.41;5032284;28;20092;-73
2023/09/20 07:35:19;;;;;;;;;;;;;;;16.97;100.00;100666.28;5042941;28;20398;-76
2023/09/20 07:37:48;;;;;;;;;;;;;;;17.01;100.00;100659.50;5032026;28;19924;-72
2023/09/20 07:40:13;;;;;;;;;;;;;;;17.11;100.00;100665.63;5022096;28;19924;-76
2023/09/20 07:42:38;;;;;;;;;;;;;;;17.12;100.00;100664.63;5037371;28;20405;-76
2023/09/20 07:45:08;;;;;;;;;;;;;;;17.25;100.00;100666.84;5030931;28;19924;-74
2023/09/20 07:47:33;;;;;;;;;;;;;;;17.25;100.00;100666.84;5034829;28;20151;-72
2023/09/20 07:49:58;;;;;;;;;;;;;;;17.34;100.00;100660.44;5037326;28;20466;-73
2023/09/20 07:52:24;;;;;;;;;;;;;;;17.44;100.00;100653.97;5034640;28;20397;-71
2023/09/20 07:54:50;;;;;;;;;;;;;;;17.50;100.00;100656.00;5031877;28;20362;-74
2023/09/20 07:57:16;;;;;;;;;;;;;;;17.60;100.00;100651.25;5040637;28;19925;-72
2023/09/20 07:59:42;;;;;;;;;;;;;;;17.63;100.00;100647.34;5033810;28;19920;-73
2023/09/20 08:02:09;;;;;;;;;;;;;;;17.53;100.00;100647.53;5034367;28;19925;-73
2023/09/20 08:04:37;;;;;;;;;;;;;;;17.48;100.00;100647.19;5033386;28;20012;-73
2023/09/20 08:07:03;;;;;;;;;;;;;;;17.57;100.00;100632.59;5039671;28;19928;-71
2023/09/20 08:09:29;;;;;;;;;;;;;;;17.59;100.00;100608.00;5040074;28;20367;-76
2023/09/20 08:11:54;;;;;;;;;;;;;;;17.86;100.00;100643.94;5034646;28;19921;-72
2023/09/20 08:14:20;;;;;;;;;;;;;;;17.92;100.00;100646.78;5039171;28;19927;-76
2023/09/20 08:16:45;;;;;;;;;;;;;;;17.90;100.00;100632.53;5039420;28;20012;-76
2023/09/20 08:19:21;;;;;;;;;;;;;;;17.88;100.00;100642.72;5035341;28;19924;-75
2023/09/20 08:21:46;;;;;;;;;;;;;;;18.17;100.00;100654.91;5046273;28;19962;-72
2023/09/20 09:00:19;;;;;;;;;;;;;;;19.08;100.00;100670.00;5036491;28;19928;-73
2023/09/20 09:02:45;;;;;;;;;;;;;;;19.15;100.00;100677.28;5032695;28;20018;-73
2023/09/20 09:05:10;;;;;;;;;;;;;;;18.94;100.00;100679.75;5039232;28;20356;-76
2023/09/20 09:07:35;;;;;;;;;;;;;;;18.95;100.00;100681.44;5050522;28;20337;-75
2023/09/20 09:10:01;;;;;;;;;;;;;;;19.00;100.00;100685.38;5035227;28;20454;-71
2023/09/20 09:12:26;;;;;;;;;;;;;;;19.10;100.00;100685.13;5031542;28;20328;-72
2023/09/20 09:14:51;;;;;;;;;;;;;;;19.06;100.00;100682.97;5032792;28;19928;-72
2023/09/20 09:17:16;;;;;;;;;;;;;;;19.18;100.00;100686.94;5047368;28;19924;-70
2023/09/20 09:19:42;;;;;;;;;;;;;;;18.78;100.00;100669.81;5032786;28;19972;-73
2023/09/20 09:22:07;;;;;;;;;;;;;;;18.99;100.00;100667.34;5036621;28;19925;-74
2023/09/20 09:24:48;;;;;;;;;;;;;;;18.96;100.00;100667.69;5035021;28;19921;-77
2023/09/20 09:27:14;;;;;;;;;;;;;;;19.08;100.00;100670.00;5039426;28;20430;-75
2023/09/20 09:29:41;;;;;;;;;;;;;;;19.05;100.00;100678.53;5038754;28;20331;-74
2023/09/20 09:32:06;;;;;;;;;;;;;;;19.11;100.00;100672.34;5037712;28;20395;-73
2023/09/20 09:34:31;;;;;;;;;;;;;;;19.46;100.00;100665.50;5040549;28;19944;-73
2023/09/20 09:36:57;;;;;;;;;;;;;;;19.30;100.00;100671.91;5033882;28;19955;-74
2023/09/20 09:39:24;;;;;;;;;;;;;;;19.12;100.00;100664.03;5037275;28;19928;-74
2023/09/20 09:41:49;;;;;;;;;;;;;;;19.08;100.00;100673.56;5018973;28;19929;-77
2023/09/20 09:44:15;;;;;;;;;;;;;;;18.81;100.00;100683.03;5037280;28;19928;-75
2023/09/20 09:46:41;;;;;;;;;;;;;;;18.81;100.00;100666.72;5032294;28;19921;-75
2023/09/20 09:49:10;;;;;;;;;;;;;;;19.00;100.00;100674.47;5038728;28;19928;-77
2023/09/20 09:51:38;;;;;;;;;;;;;;;18.93;100.00;100662.59;5035112;28;19975;-79
2023/09/20 09:54:03;;;;;;;;;;;;;;;18.85;100.00;100649.88;5046181;28;19962;-75
2023/09/20 09:56:28;;;;;;;;;;;;;;;18.98;100.00;100656.63;5033080;28;19921;-71
2023/09/20 09:58:54;;;;;;;;;;;;;;;19.11;100.00;100645.16;5032139;28;19921;-71
2023/09/20 10:01:19;;;;;;;;;;;;;;;19.12;100.00;100646.84;5029612;28;19935;-76
2023/09/20 10:03:45;;;;;;;;;;;;;;;19.22;100.00;100642.03;5032762;28;19927;-73
2023/09/20 10:06:12;;;;;;;;;;;;;;;19.34;100.00;100640.53;5029865;28;20309;-74
2023/09/20 10:08:39;;;;;;;;;;;;;;;19.57;100.00;100636.97;5031246;28;19917;-76
2023/09/20 10:11:05;;;;;;;;;;;;;;;19.69;100.00;100621.03;5033212;28;20397;-74
2023/09/20 10:13:31;;;;;;;;;;;;;;;19.70;100.00;100638.22;5032986;28;19921;-75
2023/09/20 10:15:57;;;;;;;;;;;;;;;19.57;100.00;100630.69;5034965;28;19927;-72
2023/09/20 10:18:24;;;;;;;;;;;;;;;19.66;100.00;100634.16;5034089;28;19920;-77
2023/09/20 10:20:59;;;;;;;;;;;;;;;19.78;100.00;100619.91;5037131;28;19931;-72
2023/09/20 10:23:25;;;;;;;;;;;;;;;19.89;100.00;100623.25;5029175;28;20058;-74
2023/09/20 10:25:50;;;;;;;;;;;;;;;20.06;100.00;100630.22;5030140;28;19924;-75
2023/09/20 10:28:17;;;;;;;;;;;;;;;20.27;100.00;100625.03;5033389;28;19921;-72
2023/09/20 10:31:01;;;;;;;;;;;;;;;20.47;100.00;100633.50;5042500;28;19924;-74
2023/09/20 10:33:43;;;;;;;;;;;;;;;20.74;100.00;100634.66;5034189;28;19967;-74
2023/09/20 10:36:10;;;;;;;;;;;;;;;20.77;100.00;100628.84;5032660;28;19928;-73
2023/09/20 10:38:35;;;;;;;;;;;;;;;20.63;100.00;100635.16;5033222;28;19921;-73
2023/09/20 10:41:07;;;;;;;;;;;;;;;20.59;100.00;100623.78;5029678;28;19970;-77
2023/09/20 10:43:35;;;;;;;;;;;;;;;20.54;100.00;100612.59;5029466;28;20027;-74
2023/09/20 10:46:05;;;;;;;;;;;;;;;20.63;100.00;100602.44;5034469;28;20371;-76
2023/09/20 10:48:30;;;;;;;;;;;;;;;20.59;100.00;100620.22;5031967;28;19921;-74
2023/09/20 10:50:58;;;;;;;;;;;;;;;20.61;100.00;100610.78;5032198;28;19924;-71
2023/09/20 10:54:02;;;;;;;;;;;;;;;20.81;100.00;100616.50;5018739;28;19920;-74
2023/09/20 10:56:46;;;;;;;;;;;;;;;20.94;100.00;100610.34;5052618;28;20023;-73
2023/09/20 10:59:16;;;;;;;;;;;;;;;20.83;100.00;100608.13;5038110;28;19948;-72
2023/09/20 11:01:46;;;;;;;;;;;;;;;21.05;100.00;100597.25;5033829;28;20488;-75
2023/09/20 11:04:11;;;;;;;;;;;;;;;20.83;100.00;100594.47;5033046;28;20358;-72
2023/09/20 11:06:36;;;;;;;;;;;;;;;20.59;100.00;100588.31;5039260;28;20048;-77
2023/09/20 11:09:11;;;;;;;;;;;;;;;21.06;100.00;100577.94;5033513;28;19925;-73
2023/09/20 11:11:38;;;;;;;;;;;;;;;21.51;100.00;100579.56;5037016;28;19921;-73
2023/09/20 11:14:03;;;;;;;;;;;;;;;21.00;100.00;100588.78;5033889;28;20033;-73
2023/09/20 11:16:28;;;;;;;;;;;;;;;20.89;100.00;100595.63;5034956;28;19968;-73
2023/09/20 11:18:56;;;;;;;;;;;;;;;20.87;100.00;100586.78;5032279;28;20023;-75
2023/09/20 11:21:22;;;;;;;;;;;;;;;20.85;100.00;100588.84;5036220;28;19971;-74
2023/09/20 11:23:47;;;;;;;;;;;;;;;20.88;100.00;100593.91;5044993;28;20316;-73
2023/09/20 11:26:15;;;;;;;;;;;;;;;21.02;100.00;100564.88;5033618;28;19928;-77
2023/09/20 11:28:40;;;;;;;;;;;;;;;20.86;100.00;100585.09;5035920;28;19920;-73
2023/09/20 11:31:05;;;;;;;;;;;;;;;21.09;100.00;100579.41;5036204;28;19921;-74
2023/09/20 11:33:31;;;;;;;;;;;;;;;20.95;100.00;100583.91;5036659;28;19917;-74
2023/09/20 11:35:56;;;;;;;;;;;;;;;20.72;100.00;100575.88;5032280;28;19921;-72
2023/09/20 11:38:21;;;;;;;;;;;;;;;20.57;100.00;100582.22;5032630;28;20449;-75
2023/09/20 11:40:47;;;;;;;;;;;;;;;20.85;100.00;100583.41;5046405;28;19967;-74
2023/09/20 11:43:17;;;;;;;;;;;;;;;21.00;100.00;100580.59;5034459;28;19924;-75
2023/09/20 11:45:42;;;;;;;;;;;;;;;21.09;100.00;100579.41;5044957;28;19917;-74
2023/09/20 11:48:12;;;;;;;;;;;;;;;21.31;100.00;100585.72;5038232;28;19928;-75
2023/09/20 11:50:42;;;;;;;;;;;;;;;21.68;100.00;100569.22;5045817;28;20050;-79
2023/09/20 11:53:07;;;;;;;;;;;;;;;21.46;100.00;100582.03;5027113;28;19917;-72
2023/09/20 11:55:33;;;;;;;;;;;;;;;21.05;100.00;100567.22;5017021;28;19968;-77
2023/09/20 11:57:58;;;;;;;;;;;;;;;20.95;100.00;100572.97;5026983;28;19921;-77
2023/09/20 12:00:24;;;;;;;;;;;;;;;20.75;100.00;100556.41;5036254;28;19965;-76
2023/09/20 12:02:50;;;;;;;;;;;;;;;20.74;100.00;100563.72;5032986;28;20267;-72
2023/09/20 12:05:18;;;;;;;;;;;;;;;21.00;100.00;100575.16;5032289;28;19917;-75
2023/09/20 12:07:51;;;;;;;;;;;;;;;21.21;100.00;100568.81;5034267;28;19962;-72
2023/09/20 12:10:16;;;;;;;;;;;;;;;21.78;100.00;100561.50;5044326;28;19921;-72
2023/09/20 12:12:42;;;;;;;;;;;;;;;21.96;100.00;100569.19;5045946;28;19963;-75
2023/09/20 12:15:07;;;;;;;;;;;;;;;21.25;100.00;100583.75;5052090;28;20353;-73
2023/09/20 12:17:32;;;;;;;;;;;;;;;21.08;100.00;100581.31;5012195;28;20383;-78
2023/09/20 12:19:58;;;;;;;;;;;;;;;22.18;100.00;100569.09;5033770;28;19932;-75
2023/09/20 12:22:23;;;;;;;;;;;;;;;22.34;100.00;100565.16;5032870;28;19936;-77
2023/09/20 12:24:48;;;;;;;;;;;;;;;23.14;100.00;100558.22;5031449;28;19925;-75
2023/09/20 12:27:13;;;;;;;;;;;;;;;22.94;100.00;100567.22;5032327;28;19975;-79
2023/09/20 12:29:39;;;;;;;;;;;;;;;22.41;100.00;100571.47;5015154;28;20447;-75
2023/09/20 12:32:04;;;;;;;;;;;;;;;21.82;100.00;100560.06;5050771;28;20366;-73
2023/09/20 12:34:29;;;;;;;;;;;;;;;21.39;100.00;100558.28;5035519;28;20466;-75
2023/09/20 12:36:55;;;;;;;;;;;;;;;20.94;100.00;100576.75;5030653;28;20399;-76
2023/09/20 12:39:20;;;;;;;;;;;;;;;21.01;100.00;100538.63;5047027;28;19921;-73
2023/09/20 12:41:46;;;;;;;;;;;;;;;21.29;100.00;100560.50;5035580;28;19925;-74
2023/09/20 12:44:11;;;;;;;;;;;;;;;21.09;100.00;100558.44;5047701;28;20010;-77
2023/09/20 12:46:37;;;;;;;;;;;;;;;21.03;100.00;100548.31;5030869;28;19928;-75
2023/09/20 12:49:04;;;;;;;;;;;;;;;21.08;100.00;100545.84;5046608;28;20380;-78
2023/09/20 12:51:29;;;;;;;;;;;;;;;20.95;100.00;100541.09;5047493;28;19928;-77
2023/09/20 12:53:55;;;;;;;;;;;;;;;20.79;100.00;100544.94;5034525;28;19920;-75
2023/09/20 12:56:20;;;;;;;;;;;;;;;21.42;100.00;100544.22;5047893;28;19967;-77
2023/09/20 12:58:45;;;;;;;;;;;;;;;21.76;100.00;100544.47;5020220;28;19917;-76
2023/09/20 13:01:10;;;;;;;;;;;;;;;21.58;100.00;100534.03;5049931;28;19924;-75
2023/09/20 13:03:36;;;;;;;;;;;;;;;22.05;100.00;100523.41;5035731;28;20007;-74